Latest Weather Observations for Bankstown

IDN60901

Issued at 10:41 pm EDT Friday 6 December 2019 (issued every 10 minutes, with the page automatically refreshed every 10 minutes)

About weather observations | Map of Sydney area stations | Latest observations for Sydney area | Other Formats
Station Details ID: 066137 Name: BANKSTOWN AIRPORT AWS Lat: -33.92 Lon: 150.98 Height: 7.2 m
Data from the previous 72 hours. | See also: Recent months at Bankstown
Date/Time
EDT
Temp
°C
App
Temp
°C
Dew
Point
°C
Rel
Hum
%
Delta-T
°C
Wind Press
QNH
hPa
Press
MSL
hPa
Rain since
9am
mm
Dir  Spd
km/h
Gust
km/h
Spd
kts
Gust
kts
06/10:30pm 19.6 19.2 16.1 80 2.1 SSE 13 17 7 9 1011.0 1011.0 0.0
06/10:00pm 19.8 18.7 16.3 80 2.1 SE 17 26 9 14 1010.5 1010.5 0.0
06/09:30pm 20.1 16.9 16.3 79 2.3 SE 28 33 15 18 1010.1 1010.1 0.0
06/09:00pm 20.8 18.7 17.2 80 2.2 SE 24 32 13 17 1009.6 1009.6 0.0
06/08:30pm 20.7 17.8 17.1 80 2.2 SE 28 33 15 18 1009.0 1009.0 0.0
06/08:00pm 21.2 17.5 17.0 77 2.6 SSE 32 41 17 22 1008.2 1008.2 0.0
06/07:30pm 21.5 17.9 17.3 77 2.6 SSE 32 48 17 26 1007.4 1007.4 0.0
06/07:00pm 22.2 18.6 17.6 75 2.9 SE 33 43 18 23 1006.3 1006.3 0.0
06/06:30pm 24.5 21.6 16.2 60 5.1 SE 26 35 14 19 1004.8 1004.8 0.0
06/06:00pm 28.2 27.1 12.1 37 9.4 SSW 9 17 5 9 1003.5 1003.5 0.0
06/05:30pm 31.4 26.3 -5.2 9 16.1 WSW 13 20 7 11 1003.2 1003.2 0.0
06/05:00pm 30.2 28.0 5.5 21 13.0 W 6 11 3 6 1003.0 1003.0 0.0
06/04:30pm 29.9 30.3 11.4 32 10.7 CALM 0 6 0 3 1003.0 1003.0 0.0
06/04:00pm 30.2 28.6 11.7 32 10.8 SSE 11 13 6 7 1003.0 1003.0 0.0
06/03:30pm 30.3 29.0 9.8 28 11.6 S 7 9 4 5 1003.0 1003.0 0.0
06/03:00pm 30.0 28.6 11.0 31 11.0 E 9 13 5 7 1003.1 1003.1 0.0
06/02:30pm 29.4 28.6 12.8 36 9.8 SE 9 13 5 7 1003.4 1003.4 0.0
06/02:00pm 28.2 27.8 14.1 42 8.5 ESE 9 15 5 8 1003.9 1003.9 0.0
06/01:30pm 28.0 27.4 13.5 41 8.6 E 9 15 5 8 1004.2 1004.2 0.0
06/01:00pm 26.9 26.3 14.6 46 7.4 E 11 13 6 7 1004.7 1004.7 0.0
06/12:30pm 25.9 24.7 15.0 51 6.6 ESE 15 19 8 10 1005.2 1005.2 0.0
06/12:00pm 26.1 25.3 13.9 47 7.2 S 11 13 6 7 1005.6 1005.6 0.0
06/11:30am 25.6 25.1 13.8 48 7.0 SSW 9 11 5 6 1005.7 1005.7 0.0
06/11:00am 25.0 24.9 13.9 50 6.6 SSW 7 9 4 5 1005.9 1005.9 0.0
06/10:30am 24.6 25.3 14.4 53 6.0 SSE 4 9 2 5 1006.2 1006.2 0.0
06/10:00am 23.8 23.9 14.5 56 5.5 NNE 7 9 4 5 1006.4 1006.4 0.0
06/09:30am 23.4 23.8 15.2 60 4.9 NNW 7 9 4 5 1006.6 1006.6 0.0
06/09:00am 22.6 23.5 15.0 62 4.5 ENE 4 9 2 5 1007.0 1007.0 0.0
06/08:30am 20.4 21.3 15.2 72 3.1 ENE 4 9 2 5 1007.4 1007.4 0.0
06/08:00am 19.3 21.0 15.2 77 2.4 CALM 0 0 0 0 1007.6 1007.6 0.0
06/07:49am 18.9 20.5 15.0 78 2.3 CALM 0 0 0 0 1007.6 1007.6 0.0
06/07:30am 18.6 19.3 15.7 83 1.7 S 6 6 3 3 1007.6 1007.6 0.0
06/07:00am 17.2 18.9 15.2 88 1.2 CALM 0 0 0 0 1007.6 1007.6 0.0
06/06:57am 17.1 18.8 15.1 88 1.2 CALM 0 0 0 0 1007.6 1007.6 0.0
06/06:30am 16.3 17.7 14.3 88 1.1 CALM 0 6 0 3 1007.5 1007.5 0.0
06/06:00am 16.0 17.2 13.8 87 1.2 CALM 0 0 0 0 1007.1 1007.1 0.0
06/05:30am 16.4 17.6 13.9 85 1.4 CALM 0 0 0 0 1006.9 1006.9 0.0
06/05:00am 17.2 16.8 14.1 82 1.8 SE 9 11 5 6 1006.9 1006.9 0.0
06/04:30am 17.9 16.9 14.6 81 1.9 ESE 13 19 7 10 1006.6 1006.6 0.0
06/04:00am 17.9 16.5 14.6 81 1.9 ESE 15 19 8 10 1006.5 1006.5 0.0
06/03:30am 18.2 16.9 14.9 81 1.9 ESE 15 20 8 11 1006.5 1006.5 0.0
06/03:00am 18.2 16.2 14.9 81 1.9 SE 19 24 10 13 1006.6 1006.6 0.0
06/02:30am 18.1 16.4 14.8 81 1.9 SE 17 24 9 13 1006.7 1006.7 0.0
06/02:00am 18.5 17.2 14.8 79 2.2 ESE 15 19 8 10 1006.6 1006.6 0.0
06/01:30am 18.8 17.2 15.1 79 2.2 SE 17 24 9 13 1006.7 1006.7 0.0
06/01:00am 19.1 17.6 15.2 78 2.3 ESE 17 26 9 14 1006.8 1006.8 0.0
06/12:30am 19.5 17.6 15.2 76 2.5 ESE 19 26 10 14 1006.9 1006.9 0.0
06/12:00am 20.4 18.4 15.0 71 3.2 ESE 19 24 10 13 1006.8 1006.8 0.0
 
Date/Time
EDT
Temp
°C
App
Temp
°C
Dew
Point
°C
Rel
Hum
%
Delta-T
°C
Wind Press
QNH
hPa
Press
MSL
hPa
Rain since
9am
mm
Dir  Spd
km/h
Gust
km/h
Spd
kts
Gust
kts
05/11:30pm 23.0 21.6 9.4 42 7.3 SSE 7 15 4 8 1006.5 1006.5 0.0
05/11:00pm 23.3 21.7 2.7 26 9.9 CALM 0 0 0 0 1006.5 1006.5 0.0
05/10:30pm 25.2 22.1 0.0 19 11.6 SW 6 9 3 5 1006.4 1006.4 0.0
05/10:00pm 27.9 24.3 -2.0 14 13.6 SW 7 11 4 6 1005.9 1005.9 0.0
05/09:30pm 28.7 24.1 -1.4 14 13.9 W 13 22 7 12 1005.6 1005.6 0.0
05/09:00pm 28.4 24.9 -1.6 14 13.8 WNW 7 11 4 6 1005.3 1005.3 0.0
05/08:30pm 29.1 25.0 -3.2 12 14.5 W 9 15 5 8 1005.0 1005.0 0.0
05/08:00pm 30.1 25.6 -3.6 11 15.2 W 11 15 6 8 1004.6 1004.6 0.0
05/07:30pm 30.8 25.9 -3.0 11 15.4 WNW 13 24 7 13 1004.1 1004.1 0.0
05/07:00pm 31.0 27.2 -0.6 13 15.1 WNW 9 15 5 8 1003.7 1003.7 0.0
05/06:30pm 31.7 27.1 -1.2 12 15.6 W 13 19 7 10 1003.3 1003.3 0.0
05/06:00pm 32.1 27.1 -0.9 12 15.8 W 15 20 8 11 1002.9 1002.9 0.0
05/05:30pm 32.8 27.4 -1.5 11 16.3 W 17 30 9 16 1002.8 1002.8 0.0
05/05:00pm 33.2 27.8 -1.2 11 16.5 W 17 30 9 16 1002.9 1002.9 0.0
05/04:30pm 33.2 27.4 -1.2 11 16.5 W 19 32 10 17 1003.1 1003.1 0.0
05/04:00pm 32.7 27.3 -1.6 11 16.3 W 17 28 9 15 1003.4 1003.4 0.0
05/03:46pm 32.5 26.5 -1.7 11 16.1 W 20 30 11 16 1003.6 1003.6 0.0
05/03:30pm 32.7 27.3 -1.6 11 16.2 WSW 17 26 9 14 1003.7 1003.7 0.0
05/03:12pm 32.9 26.8 -2.7 10 16.6 WSW 20 32 11 17 1003.8 1003.8 0.0
05/03:00pm 33.1 27.0 -2.6 10 16.7 W 20 33 11 18 1003.8 1003.8 0.0
05/02:30pm 33.3 27.0 -3.8 9 17.0 WSW 20 33 11 18 1004.1 1004.1 0.0
05/02:00pm 33.4 27.1 -3.7 9 17.1 W 20 32 11 17 1004.5 1004.5 0.0
05/01:30pm 33.6 27.0 -3.6 9 17.1 W 22 37 12 20 1004.9 1004.9 0.0
05/01:00pm 33.1 26.6 -2.6 10 16.7 W 22 32 12 17 1005.4 1005.4 0.0
05/12:30pm 31.6 27.4 1.8 15 14.8 WNW 13 22 7 12 1006.1 1006.1 0.0
05/12:00pm 30.3 26.4 3.4 18 13.7 WNW 13 20 7 11 1006.7 1006.7 0.0
05/11:30am 30.1 26.1 4.7 20 13.2 WNW 15 28 8 15 1007.3 1007.3 0.0
05/11:00am 28.2 25.1 5.7 24 11.7 NW 11 15 6 8 1007.8 1007.8 0.0
05/10:30am 27.2 24.1 5.5 25 11.2 NW 11 19 6 10 1008.3 1008.3 0.0
05/10:00am 26.1 23.1 6.2 28 10.3 NW 11 19 6 10 1008.8 1008.8 0.0
05/09:30am 24.8 21.5 4.5 27 10.1 NW 11 17 6 9 1009.1 1009.1 0.0
05/09:00am 23.8 21.1 5.7 31 9.2 NW 9 15 5 8 1009.4 1009.4 0.0
05/08:30am 21.8 20.4 10.9 50 6.0 WNW 9 11 5 6 1009.8 1009.8 0.0
05/08:00am 19.1 19.1 13.7 71 3.1 W 6 9 3 5 1009.9 1009.9 0.0
05/07:30am 16.7 18.2 14.7 88 1.2 CALM 0 0 0 0 1009.9 1009.9 0.0
05/07:00am 14.6 15.7 13.6 94 0.6 CALM 0 0 0 0 1009.6 1009.6 0.0
05/06:30am 13.0 12.9 12.1 94 0.5 SSE 4 7 2 4 1009.5 1009.5 0.0
05/06:00am 11.9 11.5 11.0 94 0.5 S 4 9 2 5 1009.5 1009.5 0.0
05/05:30am 12.3 12.8 11.5 95 0.4 CALM 0 0 0 0 1009.4 1009.4 0.0
05/05:00am 12.0 12.4 11.1 94 0.5 CALM 0 0 0 0 1009.3 1009.3 0.0
05/04:30am 12.5 12.9 11.4 93 0.6 CALM 0 0 0 0 1009.3 1009.3 0.0
05/04:00am 13.0 13.5 11.7 92 0.7 CALM 0 0 0 0 1009.3 1009.3 0.0
05/03:30am 13.0 13.5 11.6 91 0.7 CALM 0 0 0 0 1009.5 1009.5 0.0
05/03:00am 14.0 14.8 12.6 91 0.8 CALM 0 0 0 0 1009.6 1009.6 0.0
05/02:30am 14.0 14.7 12.2 89 1.0 CALM 0 0 0 0 1009.8 1009.8 0.0
05/02:00am 15.3 15.1 13.7 90 0.9 N 7 13 4 7 1010.0 1010.0 0.0
05/01:30am 15.4 16.5 13.4 88 1.1 CALM 0 0 0 0 1010.3 1010.3 0.0
05/01:00am 15.4 16.4 13.2 87 1.2 CALM 0 0 0 0 1010.4 1010.4 0.0
05/12:30am 15.9 17.0 13.4 85 1.4 CALM 0 0 0 0 1010.7 1010.7 0.0
05/12:00am 16.6 17.9 14.1 85 1.4 CALM 0 0 0 0 1010.5 1010.5 0.0
 
Date/Time
EDT
Temp
°C
App
Temp
°C
Dew
Point
°C
Rel
Hum
%
Delta-T
°C
Wind Press
QNH
hPa
Press
MSL
hPa
Rain since
9am
mm
Dir  Spd
km/h
Gust
km/h
Spd
kts
Gust
kts
04/11:30pm 16.9 18.2 14.2 84 1.5 CALM 0 6 0 3 1010.8 1010.8 0.0
04/11:00pm 17.0 17.0 14.1 83 1.7 WSW 7 9 4 5 1010.8 1010.8 0.0
04/10:30pm 17.3 17.2 14.0 81 1.9 SW 7 9 4 5 1010.7 1010.7 0.0
04/10:00pm 17.8 17.4 14.1 79 2.1 S 9 11 5 6 1010.3 1010.3 0.0
04/09:30pm 19.1 19.2 14.4 74 2.7 SSE 7 9 4 5 1010.1 1010.1 0.0
04/09:00pm 19.6 19.2 14.0 70 3.2 SE 9 11 5 6 1009.6 1009.6 0.0
04/08:30pm 20.5 19.0 14.2 67 3.7 SE 15 17 8 9 1009.1 1009.1 0.0
04/08:00pm 21.1 19.7 14.5 66 3.9 ESE 15 19 8 10 1008.8 1008.8 0.0
04/07:30pm 21.3 19.7 14.9 67 3.8 ESE 17 19 9 10 1008.4 1008.4 0.0
04/07:00pm 22.0 19.8 13.4 58 5.0 ESE 17 24 9 13 1008.0 1008.0 0.0
04/06:30pm 22.5 19.1 11.3 49 6.2 ESE 20 28 11 15 1007.2 1007.2 0.0
04/06:00pm 22.8 19.4 12.4 52 5.9 ESE 22 30 12 16 1006.6 1006.6 0.0
04/05:30pm 23.7 19.5 12.4 49 6.5 SE 26 32 14 17 1006.1 1006.1 0.0
04/05:00pm 25.3 21.4 10.7 40 8.2 ESE 22 32 12 17 1005.8 1005.8 0.0
04/04:30pm 26.6 20.9 5.0 25 11.0 ESE 24 30 13 16 1005.6 1005.6 0.0
04/04:00pm 27.1 20.9 6.0 26 11.0 ESE 28 37 15 20 1005.3 1005.3 0.0
04/03:37pm 30.4 24.6 -4.6 10 15.5 SW 17 26 9 14 1005.3 1005.3 0.0
04/03:30pm 30.3 24.9 -4.7 10 15.4 SW 15 26 8 14 1005.2 1005.2 0.0
04/03:00pm 30.4 25.0 -4.6 10 15.5 W 15 24 8 13 1005.3 1005.3 0.0
04/02:41pm 30.1 24.7 -4.8 10 15.3 W 15 26 8 14 1005.3 1005.3 0.0
04/02:37pm 30.5 25.2 -3.3 11 15.3 WSW 15 24 8 13 1005.4 1005.4 0.0
04/02:30pm 30.3 25.3 -4.7 10 15.4 SW 13 20 7 11 1005.4 1005.4 0.0
04/02:13pm 30.1 25.4 -4.8 10 15.3 WSW 11 20 6 11 1005.6 1005.6 0.0
04/02:00pm 30.1 25.3 -2.4 12 14.9 WSW 13 19 7 10 1005.7 1005.7 0.0
04/01:30pm 29.5 24.9 -4.0 11 14.9 W 11 19 6 10 1005.9 1005.9 0.0
04/01:00pm 28.9 25.7 0.6 16 13.6 NW 7 11 4 6 1006.3 1006.3 0.0
04/12:30pm 28.1 24.4 -0.1 16 13.3 NNW 9 15 5 8 1006.8 1006.8 0.0
04/12:00pm 26.8 23.2 0.5 18 12.4 NW 9 17 5 9 1007.2 1007.2 0.0
04/11:30am 26.6 23.9 2.5 21 11.7 WNW 6 13 3 7 1007.8 1007.8 0.0
04/11:00am 25.5 22.4 3.5 24 10.9 SSW 9 13 5 7 1008.3 1008.3 0.0
04/10:30am 25.5 22.5 4.0 25 10.7 WNW 9 13 5 7 1008.5 1008.5 0.0
04/10:00am 24.2 20.9 4.6 28 9.8 S 11 15 6 8 1008.8 1008.8 0.0
04/09:30am 24.2 22.1 6.0 31 9.3 WNW 6 13 3 7 1009.1 1009.1 0.0
04/09:00am 23.5 20.5 5.9 32 9.0 W 11 17 6 9 1009.0 1009.0 0.0
04/08:30am 22.5 20.4 6.7 36 8.1 WNW 7 11 4 6 1009.0 1009.0 0.0
04/08:00am 20.4 20.1 8.7 47 6.2 CALM 0 0 0 0 1008.8 1008.8 0.0
04/07:30am 18.0 17.5 7.7 51 5.2 CALM 0 0 0 0 1008.9 1008.9 0.0
04/07:00am 16.0 15.7 8.7 62 3.7 CALM 0 0 0 0 1008.7 1008.7 0.0
04/06:30am 14.7 14.1 7.3 61 3.6 CALM 0 0 0 0 1008.5 1008.5 0.0
04/06:00am 13.5 12.7 6.4 62 3.4 CALM 0 0 0 0 1008.2 1008.2 0.0
04/05:30am 16.9 14.1 5.2 46 5.6 N 9 13 5 7 1007.7 1007.7 0.0
04/05:00am 17.8 14.6 5.1 43 6.1 N 11 15 6 8 1007.4 1007.4 0.0
04/04:30am 17.5 14.4 5.4 45 5.8 N 11 13 6 7 1007.2 1007.2 0.0
04/04:00am 16.9 14.2 5.5 47 5.5 N 9 11 5 6 1007.3 1007.3 0.0
04/03:30am 15.7 13.9 5.6 51 4.8 NNW 4 9 2 5 1007.7 1007.7 0.0
04/03:00am 16.5 15.5 5.5 48 5.3 CALM 0 4 0 2 1007.8 1007.8 0.0
04/02:30am 17.3 15.0 4.9 44 5.9 NNW 6 7 3 4 1007.9 1007.9 0.0
04/02:00am 19.1 16.6 4.5 38 7.0 NW 7 11 4 6 1007.8 1007.8 0.0
04/01:30am 19.8 16.1 4.7 37 7.3 W 13 19 7 10 1007.8 1007.8 0.0
04/01:00am 19.6 15.9 4.5 37 7.3 W 13 19 7 10 1007.9 1007.9 0.0
04/12:30am 19.8 16.4 3.9 35 7.6 W 11 15 6 8 1008.1 1008.1 0.0
04/12:00am 20.9 16.3 3.6 32 8.3 WSW 17 26 9 14 1007.9 1007.9 0.0
 
Date/Time
EDT
Temp
°C
App
Temp
°C
Dew
Point
°C
Rel
Hum
%
Delta-T
°C
Wind Press
QNH
hPa
Press
MSL
hPa
Rain since
9am
mm
Dir  Spd
km/h
Gust
km/h
Spd
kts
Gust
kts
03/11:30pm 22.0 16.4 3.6 30 8.9 WSW 22 35 12 19 1007.6 1007.6 0.0
03/11:00pm 22.5 16.8 3.1 28 9.3 WSW 22 39 12 21 1007.7 1007.7 0.0

Latest Capital City Observations: Canberra | Sydney | Melbourne | Brisbane | Adelaide | Perth | Hobart | Darwin

Other formats

Comma delimited format used in spreadsheet applications
http://www.bom.gov.au/fwo/IDN60901/IDN60901.94765.axf

JavaScript Object Notation format (JSON) in row-major order
http://www.bom.gov.au/fwo/IDN60901/IDN60901.94765.json

Data quality

Most of these data are generated automatically and are frequently updated. Quality checks on data are not normally performed. It is possible for incorrect values to appear. Refer to information at About Latest Weather Observations and please check the disclaimer before using these data.